17 agosto 2022

Tempo Codice Tempo metereologico Temp. Vista Base nuvolosa Vento METAR/SPECI
13:20
V
22 °C 8 km 13.000 ft 030° 030° 6 kt METAR ETNT 171120Z 03006KT 8000 FEW008 BKN130 22/19 Q1012 BLACKBLU
13:10
V
22 °C 8 km 12.000 ft 030° 030° 6 kt METAR ETNT 171110Z 03006KT 8000 FEW007 BKN120 22/19 Q1012 BLACKBLU
12:20
M
21 °C 6 km 11.000 ft 030° 030° 6 kt METAR ETNT 171020Z 03006KT 6000 FEW007 SCT080 BKN110 21/19 Q1011 BLACKWHT
11:44
M
21 °C 5 km 8.000 ft 020° 020° 5 kt METAR ETNT 170944Z 02005KT 5000 BR BKN080 BKN110 21/19 Q1012 BLACKWHT
11:20
I
20 °C 4,5 km 8.000 ft 030° 030° 4 kt METAR ETNT 170920Z 03004KT 4500 BR BKN080 BKN110 20/19 Q1012 BLACKGRN
10:20
I
20 °C 3,5 km 8.000 ft 060° 060° 3 kt METAR ETNT 170820Z 06003KT 3500 -RA BR BKN080 BKN100 20/19 Q1012 BLACKYLO
10:04
I
20 °C 3 km 8.000 ft 090° 090° 3 kt METAR ETNT 170804Z 09003KT 3000 -RA BR FEW009 BKN080 20/19 Q1012 BLACKYLO
09:44
I
20 °C 2 km 1.000 ft 080° 080° 2 kt METAR ETNT 170744Z 08002KT 2000 BR BKN010 20/19 Q1012 BLACKYLO
09:20
L
20 °C 1 km - 080° 080° 2 kt METAR ETNT 170720Z 08002KT 1000 BR FEW250 20/19 Q1011 BLACKAMB
08:20
L
19 °C 800 m - 080° 080° 1 kt METAR ETNT 170620Z 08001KT 0800 FG FEW250 19/19 Q1011 BLACKAMB
07:20
L
17 °C 800 m - 080° 080° 1 kt METAR ETNT 170520Z 08001KT 0800 FG FEW250 17/17 Q1011 BLACKAMB
06:20
L
15 °C 800 m - 080° 080° 1 kt METAR ETNT 170420Z 08001KT 0800 FG FEW250 15/15 Q1011 BLACKAMB
05:20
L
14 °C 0 m - Var 000° 0 kt METAR ETNT 170320Z AUTO /////KT //// // ////// 14/14 Q1010 ///
04:20
L
15 °C 0 m - Var 000° 0 kt METAR ETNT 170220Z AUTO /////KT //// // ////// 15/15 Q1011 ///
03:20
L
16 °C 0 m - Var 000° 0 kt METAR ETNT 170120Z AUTO /////KT //// // ////// 16/16 Q1011 ///
02:20
L
16 °C 0 m - Var 000° 0 kt METAR ETNT 170020Z AUTO /////KT //// // ////// 16/16 Q1011 ///
01:20
L
16 °C 0 m - Var 000° 0 kt METAR ETNT 162320Z AUTO /////KT //// // ////// 16/16 Q1011 ///
00:20
L
17 °C 0 m - Var 000° 0 kt METAR ETNT 162220Z AUTO /////KT //// // ////// 17/16 Q1011 ///

16 agosto 2022

Tempo Codice Tempo metereologico Temp. Vista Base nuvolosa Vento METAR/SPECI
23:20
L
18 °C 0 m - Var 000° 0 kt METAR ETNT 162120Z AUTO /////KT //// // ////// 18/17 Q1011 ///
22:20
L
18 °C 0 m - Var 000° 0 kt METAR ETNT 162020Z AUTO /////KT //// // ////// 18/17 Q1010 ///
21:20
L
20 °C 0 m - Var 000° 0 kt METAR ETNT 161920Z AUTO /////KT //// // ////// 20/18 Q1009 ///
20:20
L
22 °C 0 m - Var 000° 0 kt METAR ETNT 161820Z AUTO /////KT //// // ////// 22/18 Q1009 ///
19:20
V
23 °C 10 km+ 27.000 ft 310° 310° 8 kt METAR ETNT 161720Z 31008KT 9999 SCT160 BKN270 23/18 Q1008 BLACKBLU+
18:20
V
25 °C 10 km+ 27.000 ft 300° 300° 8 kt METAR ETNT 161620Z 30008KT 9999 FEW150 BKN270 25/19 Q1008 BLACKBLU+
17:20
V
27 °C 10 km+ - 300° 300° 7 kt METAR ETNT 161520Z 30007KT 9999 FEW060 SCT270 27/19 Q1008 BLACKBLU+
16:20
V
29 °C 10 km+ - 280° 280° 4 kt METAR ETNT 161420Z 28004KT 9999 FEW060 SCT270 29/16 Q1007 BLACKBLU+
15:20
V
28 °C 10 km+ - 240° 240° 8 kt METAR ETNT 161320Z 24008KT 9999 FEW048 28/15 Q1007 BLACKBLU+
14:20
V
28 °C 10 km+ - 220° 220° 8 kt METAR ETNT 161220Z 22008KT 9999 FEW040 28/15 Q1007 BLACKBLU+
13:20
V
26 °C 10 km+ - 210° 210° 8 kt METAR ETNT 161120Z 21008KT 9999 FEW040 26/16 Q1007 BLACKBLU+
12:20
V
25 °C 10 km+ - 200° 200° 8 kt METAR ETNT 161020Z 20008KT 9999 FEW150 25/17 Q1006 BLACKBLU+
11:20
V
24 °C 10 km+ - 190° 190° 7 kt METAR ETNT 160920Z 19007KT 9999 FEW150 24/17 Q1006 BLU+
10:20
V
23 °C 10 km+ - 200° 200° 7 kt METAR ETNT 160820Z 20007KT 9999 SCT150 23/18 Q1006 BLACKBLU+
09:20
V
20 °C 10 km+ 15.000 ft 180° 180° 3 kt METAR ETNT 160720Z 18003KT 9999 BKN150 20/18 Q1006 BLACKBLU
08:20
V
19 °C 10 km+ 15.000 ft 190° 190° 4 kt METAR ETNT 160620Z 19004KT 9999 BKN150 19/18 Q1005 BLACKBLU
07:20
V
18 °C 8 km - 160° 160° 5 kt METAR ETNT 160520Z 16005KT 8000 SCT150 18/17 Q1005 BLACKBLU+
06:20
M
18 °C 7 km 13.000 ft 170° 170° 3 kt METAR ETNT 160420Z 17003KT 7000 BKN130 18/17 Q1005 BLACKWHT
05:20
L
18 °C 0 m - Var 000° 0 kt METAR ETNT 160320Z AUTO /////KT //// // ////// 18/17 Q1005 ///
04:20
L
17 °C 0 m - Var 000° 0 kt METAR ETNT 160220Z AUTO /////KT //// // ////// 17/17 Q1005 ///
03:20
L
17 °C 0 m - Var 000° 0 kt METAR ETNT 160120Z AUTO /////KT //// // ////// 17/17 Q1005 ///
02:20
L
17 °C 0 m - Var 000° 0 kt METAR ETNT 160020Z AUTO /////KT //// // ////// 17/16 Q1005 ///
01:20
L
19 °C 0 m - Var 000° 0 kt METAR ETNT 152320Z AUTO /////KT //// // ////// 19/18 Q1005 ///
00:20
L
18 °C 0 m - Var 000° 0 kt METAR ETNT 152220Z AUTO /////KT //// // ////// 18/17 Q1005 ///

15 agosto 2022

Tempo Codice Tempo metereologico Temp. Vista Base nuvolosa Vento METAR/SPECI
23:20
L
18 °C 0 m - Var 000° 0 kt METAR ETNT 152120Z AUTO /////KT //// // ////// 18/18 Q1005 ///
22:20
L
18 °C 0 m - Var 000° 0 kt METAR ETNT 152020Z AUTO /////KT //// // ////// 18/18 Q1004 ///
21:20
L
18 °C 0 m - Var 000° 0 kt METAR ETNT 151920Z AUTO /////KT //// // ////// 18/17 Q1004 ///
20:20
L
19 °C 0 m - Var 000° 0 kt METAR ETNT 151820Z AUTO /////KT //// // ////// 19/17 Q1003 ///
19:20
V
20 °C 10 km+ 13.000 ft 210° 210° 8 kt METAR ETNT 151720Z 21008KT 9999 FEW040 BKN130 20/17 Q1002 BLACKBLU
18:20
V
19 °C 10 km+ 13.000 ft 200° 200° 8 kt METAR ETNT 151620Z 20008KT 9999 SCT040 BKN130 19/18 Q1003 RETS BLACKBLU
17:45
V
19 °C 10 km+ 13.000 ft 180° 180° 10 kt METAR ETNT 151545Z 18010KT 9999 -SHRA SCT040CB BKN130 19/17 Q1004 RETS BLACKBLU
17:20
V
20 °C 10 km+ 4.000 ft 180° 180° 12 kt METAR ETNT 151520Z 18012KT 9999 -TSRA BKN040CB BKN130 20/17 Q1003 BLACKBLU
16:40
V
27 °C 10 km+ 4.000 ft 180° 180° 18 kt METAR ETNT 151440Z 18018KT 9999 -TSRA BKN040CB BKN130 27/17 Q1003 BLACKBLU
16:20
V
29 °C 10 km+ 13.000 ft 120° 120° 6 kt METAR ETNT 151420Z 12006KT 9999 SCT050CB BKN130 29/17 Q1002 BLACKBLU
15:20
V
30 °C 10 km+ - 110° 110° 6 kt METAR ETNT 151320Z 11006KT 9999 FEW050 SCT130 30/18 Q1002 BLACKBLU+
Dati più vecchi

Noi e le terze parti seguiamo il tuo comportamento in internet sul nostro sito web con i cookie. Se continui, riteniamo che tu sia d'accordo con la nostra politica sui cookie. Per saperne di più